Time;durP1;ratioP1;P1;durP2;ratioP2;P2;SDS_P1;SDS_P2;PMS_P1;PMS_P2;Temp;Humidity;BMP_temperature;BMP_pressure;BME280_temperature;BME280_humidity;BME280_pressure;Samples;Min_cycle;Max_cycle;Signal;HPM_P1;HPM_P2
2022/07/29 00:00:15;;;;;;;4.60;1.40;;;14.50;99.90;;;;;;4736274;30;20067;-93
2022/07/29 00:02:41;;;;;;;6.70;1.60;;;14.50;99.90;;;;;;4736981;30;20102;-93
2022/07/29 00:05:08;;;;;;;2.40;1.00;;;14.50;99.90;;;;;;4736195;30;20677;-93
2022/07/29 00:07:33;;;;;;;5.30;1.23;;;14.50;99.90;;;;;;4766773;30;20074;-93
2022/07/29 00:09:59;;;;;;;4.75;1.00;;;14.60;99.90;;;;;;4737050;30;20039;-94
2022/07/29 00:12:25;;;;;;;7.63;1.05;;;14.60;99.90;;;;;;4765381;30;20152;-93
2022/07/29 00:14:52;;;;;;;6.10;1.20;;;14.60;99.90;;;;;;4767120;30;20036;-93
2022/07/29 00:17:18;;;;;;;6.25;1.58;;;14.70;99.90;;;;;;4765379;30;20047;-94
2022/07/29 00:19:44;;;;;;;4.10;1.15;;;14.70;99.90;;;;;;4766336;30;20062;-93
2022/07/29 00:22:09;;;;;;;6.25;1.17;;;14.70;99.90;;;;;;4766181;30;20485;-93
2022/07/29 00:24:36;;;;;;;4.10;1.35;;;14.70;99.90;;;;;;4766136;30;20596;-94
2022/07/29 00:27:02;;;;;;;4.57;1.20;;;14.70;99.90;;;;;;4766595;30;20142;-93
2022/07/29 00:29:28;;;;;;;8.50;1.40;;;14.70;99.90;;;;;;4769651;30;20058;-93
2022/07/29 00:31:54;;;;;;;4.05;1.30;;;14.70;99.90;;;;;;4768739;30;20043;-93
2022/07/29 00:37:03;;;;;;;4.88;1.33;;;14.80;99.90;;;;;;4769123;30;20059;-93
2022/07/29 00:39:29;;;;;;;4.32;1.52;;;14.80;99.90;;;;;;4768467;30;20058;-94
2022/07/29 00:41:55;;;;;;;4.90;1.27;;;14.80;99.90;;;;;;4769371;30;20488;-93
2022/07/29 00:44:21;;;;;;;5.03;1.25;;;14.70;99.90;;;;;;4768578;30;20541;-93
2022/07/29 00:46:46;;;;;;;4.88;1.83;;;14.70;99.90;;;;;;4767902;30;20154;-93
2022/07/29 00:49:13;;;;;;;2.22;1.10;;;14.80;99.90;;;;;;4769228;30;20209;-93
2022/07/29 00:51:39;;;;;;;4.93;1.42;;;14.80;99.90;;;;;;4768659;30;20051;-94
2022/07/29 00:54:07;;;;;;;4.82;1.20;;;14.80;99.90;;;;;;4768396;30;20485;-94
2022/07/29 00:56:33;;;;;;;4.85;0.98;;;14.80;99.90;;;;;;4768445;30;20552;-93
2022/07/29 00:58:59;;;;;;;5.60;1.42;;;14.80;99.90;;;;;;4768883;30;20138;-94
2022/07/29 01:01:26;;;;;;;2.85;0.88;;;14.80;99.90;;;;;;4766933;30;20093;-94
2022/07/29 01:03:52;;;;;;;6.47;1.42;;;14.80;99.90;;;;;;4768180;30;20062;-94
2022/07/29 01:06:19;;;;;;;4.65;1.30;;;14.90;99.90;;;;;;4768422;30;20390;-94
2022/07/29 01:08:47;;;;;;;5.57;1.35;;;14.90;99.90;;;;;;4768004;30;20421;-93
2022/07/29 01:11:14;;;;;;;3.40;1.25;;;14.80;99.90;;;;;;4768590;30;20095;-94
2022/07/29 01:13:41;;;;;;;3.63;1.20;;;14.90;99.90;;;;;;4768220;30;20048;-92
2022/07/29 01:16:29;;;;;;;4.38;1.25;;;14.80;99.90;;;;;;4767598;30;20516;-94
2022/07/29 01:19:03;;;;;;;9.75;1.30;;;14.80;99.90;;;;;;4768396;30;20051;-93
2022/07/29 01:21:49;;;;;;;6.07;1.63;;;14.80;99.90;;;;;;4767997;30;20434;-93
2022/07/29 01:24:44;;;;;;;7.32;1.33;;;14.80;99.90;;;;;;4753433;30;20051;-93
2022/07/29 01:27:16;;;;;;;5.13;1.33;;;14.80;99.90;;;;;;4753190;30;20043;-94
2022/07/29 01:29:48;;;;;;;2.80;1.20;;;14.80;99.90;;;;;;4768352;30;20101;-94
2022/07/29 01:32:19;;;;;;;4.60;1.20;;;14.80;99.90;;;;;;4765051;30;20142;-94
2022/07/29 01:34:52;;;;;;;5.28;1.20;;;14.80;99.90;;;;;;4750337;30;20139;-94
2022/07/29 01:37:48;;;;;;;3.03;1.27;;;14.80;99.90;;;;;;4750049;30;20051;-94
2022/07/29 01:40:28;;;;;;;7.03;1.73;;;14.80;99.90;;;;;;4750023;30;20141;-94
2022/07/29 01:42:57;;;;;;;8.77;1.50;;;14.80;99.90;;;;;;4735430;30;20903;-94
2022/07/29 01:45:41;;;;;;;7.07;1.85;;;14.80;99.90;;;;;;4749841;30;20423;-93
2022/07/29 01:48:11;;;;;;;4.18;1.33;;;14.70;99.90;;;;;;4750253;30;20087;-94
2022/07/29 01:50:48;;;;;;;4.78;1.40;;;14.80;99.90;;;;;;4749839;30;20063;-93
2022/07/29 01:53:21;;;;;;;5.47;1.10;;;14.80;99.90;;;;;;4750742;30;20051;-93
2022/07/29 01:55:49;;;;;;;5.32;1.55;;;14.80;99.90;;;;;;4750528;30;20066;-93
2022/07/29 01:58:18;;;;;;;6.38;1.10;;;14.80;99.90;;;;;;4749623;30;20047;-93
2022/07/29 02:00:46;;;;;;;3.90;1.10;;;14.80;99.90;;;;;;4750979;30;20535;-93
2022/07/29 02:03:13;;;;;;;3.70;1.17;;;14.80;99.90;;;;;;4751138;30;20146;-93
2022/07/29 02:05:42;;;;;;;7.18;1.30;;;14.80;99.90;;;;;;4748300;30;20074;-93
2022/07/29 02:08:09;;;;;;;5.93;1.25;;;14.80;99.90;;;;;;4733859;30;20052;-93
2022/07/29 02:10:37;;;;;;;4.45;1.20;;;14.90;99.90;;;;;;4736514;30;20138;-93
2022/07/29 02:13:05;;;;;;;3.97;1.02;;;14.90;99.90;;;;;;4752508;30;20074;-93
2022/07/29 02:15:33;;;;;;;6.13;1.38;;;14.80;99.90;;;;;;4752085;30;20497;-93
2022/07/29 02:18:06;;;;;;;3.63;1.23;;;14.90;99.90;;;;;;4751488;30;20113;-94
2022/07/29 02:20:33;;;;;;;5.18;1.30;;;14.80;99.90;;;;;;4751879;30;20124;-93
2022/07/29 02:23:00;;;;;;;6.10;1.33;;;14.90;99.90;;;;;;4751368;30;20138;-94
2022/07/29 02:25:27;;;;;;;6.10;1.35;;;14.80;99.90;;;;;;4751176;30;20052;-93
2022/07/29 02:27:54;;;;;;;4.47;1.27;;;14.80;99.90;;;;;;4751274;30;20100;-93
2022/07/29 02:30:22;;;;;;;4.95;1.50;;;14.80;99.90;;;;;;4751330;30;20052;-93
2022/07/29 02:32:50;;;;;;;4.65;1.38;;;14.80;99.90;;;;;;4751331;30;20059;-93
2022/07/29 02:35:18;;;;;;;4.35;1.08;;;14.80;99.90;;;;;;4751080;30;20048;-94
2022/07/29 02:37:45;;;;;;;6.20;1.20;;;14.80;99.90;;;;;;4751680;30;20552;-93
2022/07/29 02:40:15;;;;;;;4.22;1.27;;;14.80;99.90;;;;;;4751400;30;20147;-93
2022/07/29 02:42:43;;;;;;;3.35;1.00;;;14.80;99.90;;;;;;4751207;30;20048;-93
2022/07/29 02:45:10;;;;;;;5.72;1.52;;;14.80;99.90;;;;;;4752068;30;20463;-93
2022/07/29 02:47:41;;;;;;;3.60;1.15;;;14.80;99.90;;;;;;4754477;30;20055;-94
2022/07/29 02:50:15;;;;;;;7.60;1.05;;;14.80;99.90;;;;;;4754920;30;20051;-94
2022/07/29 02:52:45;;;;;;;11.88;1.30;;;14.80;99.90;;;;;;4754364;30;20073;-94
2022/07/29 02:55:27;;;;;;;8.20;1.17;;;14.80;99.90;;;;;;4754652;30;20090;-94
2022/07/29 02:57:59;;;;;;;7.60;1.15;;;14.80;99.90;;;;;;4754806;30;20097;-94
2022/07/29 03:00:28;;;;;;;5.13;1.25;;;14.80;99.90;;;;;;4762716;30;20052;-93
2022/07/29 03:02:58;;;;;;;8.07;1.10;;;14.80;99.90;;;;;;4739820;30;20094;-94
2022/07/29 03:05:25;;;;;;;4.53;1.10;;;14.80;99.90;;;;;;4754006;30;20135;-91
2022/07/29 03:08:00;;;;;;;8.45;1.42;;;14.80;99.90;;;;;;4754600;30;20048;-92
2022/07/29 03:10:27;;;;;;;5.82;1.20;;;14.80;99.90;;;;;;4753908;30;20075;-92
2022/07/29 03:12:54;;;;;;;5.03;1.10;;;14.70;99.90;;;;;;4754265;30;20083;-91
2022/07/29 03:15:21;;;;;;;5.15;1.10;;;14.70;99.90;;;;;;4756547;30;20143;-93
2022/07/29 03:17:47;;;;;;;5.13;0.93;;;14.80;99.90;;;;;;4741229;30;20048;-92
2022/07/29 03:20:16;;;;;;;8.98;1.40;;;14.70;99.90;;;;;;4739495;30;20104;-92
2022/07/29 03:22:46;;;;;;;4.32;1.33;;;14.80;99.90;;;;;;4754133;30;20090;-94
2022/07/29 03:25:14;;;;;;;4.10;1.30;;;14.70;99.90;;;;;;4739398;30;20058;-93
2022/07/29 03:27:40;;;;;;;4.78;1.33;;;14.70;99.90;;;;;;4753996;30;20513;-92
2022/07/29 03:30:07;;;;;;;4.20;1.20;;;14.70;99.90;;;;;;4753880;30;20540;-90
2022/07/29 03:32:33;;;;;;;4.97;1.13;;;14.60;99.90;;;;;;4751981;30;20059;-92
2022/07/29 03:34:59;;;;;;;6.78;1.35;;;14.70;99.90;;;;;;4771354;30;20054;-93
2022/07/29 03:37:25;;;;;;;6.60;1.10;;;14.70;99.90;;;;;;4771538;30;20054;-92
2022/07/29 03:39:54;;;;;;;5.50;1.40;;;14.60;99.90;;;;;;4771791;30;20051;-92
2022/07/29 03:42:23;;;;;;;9.10;1.55;;;14.70;99.90;;;;;;4771601;30;20114;-93
2022/07/29 03:44:51;;;;;;;4.43;1.15;;;14.70;99.90;;;;;;4771943;30;20091;-92
2022/07/29 03:47:20;;;;;;;3.13;1.05;;;14.70;99.90;;;;;;4771568;30;20051;-93
2022/07/29 03:49:50;;;;;;;8.05;1.20;;;14.70;99.90;;;;;;4771449;30;20051;-92
2022/07/29 03:52:16;;;;;;;6.50;1.60;;;14.70;99.90;;;;;;4771168;30;20488;-94
2022/07/29 03:54:42;;;;;;;5.57;1.45;;;14.70;99.90;;;;;;4771201;30;20126;-92
2022/07/29 03:57:11;;;;;;;6.57;1.20;;;14.60;99.90;;;;;;4770091;30;20061;-94
2022/07/29 03:59:37;;;;;;;8.05;1.25;;;14.70;99.90;;;;;;4771082;30;20055;-94
2022/07/29 04:02:05;;;;;;;3.88;1.05;;;14.60;99.90;;;;;;4770375;30;20059;-94
2022/07/29 04:04:34;;;;;;;11.23;1.40;;;14.70;99.90;;;;;;4771206;30;20047;-93
2022/07/29 04:07:00;;;;;;;9.10;1.88;;;14.70;99.90;;;;;;4770910;30;20137;-94
2022/07/29 04:09:26;;;;;;;9.38;1.60;;;14.70;99.90;;;;;;4770748;30;20134;-94
2022/07/29 04:11:52;;;;;;;4.25;1.27;;;14.70;99.90;;;;;;4788017;29;20062;-94
2022/07/29 04:14:18;;;;;;;6.25;1.27;;;14.70;99.90;;;;;;4774048;29;20089;-94
2022/07/29 04:16:44;;;;;;;3.72;1.20;;;14.70;99.90;;;;;;4773721;29;20082;-93
2022/07/29 04:19:09;;;;;;;6.22;1.08;;;14.70;99.90;;;;;;4773357;29;20057;-93
2022/07/29 04:21:54;;;;;;;4.55;1.40;;;14.70;99.90;;;;;;4763976;30;20048;-94
2022/07/29 04:24:19;;;;;;;6.35;1.27;;;14.80;99.90;;;;;;4738040;30;20056;-93
2022/07/29 04:26:46;;;;;;;8.05;1.17;;;14.80;99.90;;;;;;4738025;30;20046;-95
2022/07/29 04:29:13;;;;;;;6.10;1.40;;;14.80;99.90;;;;;;4744666;30;20127;-94
2022/07/29 04:31:40;;;;;;;7.10;1.27;;;14.80;99.90;;;;;;4770483;30;20135;-95
2022/07/29 04:34:05;;;;;;;7.07;1.83;;;14.90;99.90;;;;;;4756661;30;20085;-92
2022/07/29 04:36:31;;;;;;;8.85;1.30;;;14.90;99.90;;;;;;4770949;30;20069;-94
2022/07/29 04:38:57;;;;;;;7.18;1.40;;;14.90;99.90;;;;;;4771281;30;20048;-93
2022/07/29 04:41:23;;;;;;;4.57;1.20;;;14.90;99.90;;;;;;4777863;30;20142;-95
2022/07/29 04:43:49;;;;;;;7.80;1.50;;;14.90;99.90;;;;;;4770509;30;20203;-94
2022/07/29 04:46:15;;;;;;;6.30;1.40;;;15.00;99.90;;;;;;4768818;30;20462;-94
2022/07/29 04:48:41;;;;;;;5.53;1.58;;;15.00;99.90;;;;;;4768779;30;20054;-93
2022/07/29 04:51:06;;;;;;;5.30;1.50;;;15.00;99.90;;;;;;4769862;30;20373;-93
2022/07/29 04:53:32;;;;;;;6.43;1.38;;;15.00;99.90;;;;;;4770478;30;20051;-93
2022/07/29 04:55:58;;;;;;;4.72;1.20;;;15.00;99.90;;;;;;4770321;30;20481;-94
2022/07/29 04:58:24;;;;;;;3.38;1.23;;;15.10;99.90;;;;;;4770697;30;20055;-94
2022/07/29 05:00:50;;;;;;;7.72;1.38;;;15.10;99.90;;;;;;4769930;30;20420;-93
2022/07/29 05:03:16;;;;;;;10.50;1.65;;;15.10;99.90;;;;;;4769836;30;20066;-93
2022/07/29 05:05:42;;;;;;;5.22;1.45;;;15.10;99.90;;;;;;4770218;30;20492;-94
2022/07/29 05:08:08;;;;;;;3.38;1.10;;;15.10;99.90;;;;;;4769208;30;20136;-95
2022/07/29 05:10:37;;;;;;;4.28;1.27;;;15.10;99.90;;;;;;4767197;30;20169;-92
2022/07/29 05:13:06;;;;;;;6.45;1.20;;;15.20;99.90;;;;;;4752582;30;20044;-93
2022/07/29 05:15:32;;;;;;;5.82;1.40;;;15.20;99.90;;;;;;4781970;30;20074;-93
2022/07/29 05:17:58;;;;;;;6.53;1.35;;;15.20;99.90;;;;;;4782157;30;20055;-93
2022/07/29 05:20:27;;;;;;;5.90;1.23;;;15.20;99.90;;;;;;4751689;30;20055;-93
2022/07/29 05:22:55;;;;;;;6.47;1.70;;;15.20;99.90;;;;;;4752744;30;20061;-94
2022/07/29 05:25:21;;;;;;;5.85;1.27;;;15.20;99.90;;;;;;4780993;30;20440;-93
2022/07/29 05:27:47;;;;;;;6.00;1.23;;;15.20;99.90;;;;;;4752150;30;20056;-94
2022/07/29 05:30:13;;;;;;;4.38;1.20;;;15.30;99.90;;;;;;4751624;30;20138;-94
2022/07/29 05:32:39;;;;;;;6.00;1.42;;;15.30;99.90;;;;;;4751996;30;20130;-94
2022/07/29 05:35:05;;;;;;;5.90;1.17;;;15.40;99.90;;;;;;4752369;30;20455;-94
2022/07/29 05:37:31;;;;;;;10.88;1.70;;;15.40;99.90;;;;;;4781173;30;20107;-94
2022/07/29 05:39:56;;;;;;;5.28;1.33;;;15.40;99.90;;;;;;4752312;30;20143;-93
2022/07/29 05:42:23;;;;;;;4.28;1.25;;;15.50;99.90;;;;;;4751236;30;20130;-95
2022/07/29 05:44:48;;;;;;;7.32;1.35;;;15.60;99.90;;;;;;4781950;30;20131;-93
2022/07/29 05:47:14;;;;;;;5.32;1.35;;;15.60;99.90;;;;;;4751997;30;20147;-94
2022/07/29 05:49:40;;;;;;;4.88;1.23;;;15.70;99.90;;;;;;4751832;30;20055;-95
2022/07/29 05:52:06;;;;;;;4.38;1.17;;;15.80;99.90;;;;;;4751682;30;20146;-94
2022/07/29 05:54:31;;;;;;;6.28;1.35;;;15.90;99.90;;;;;;4752027;30;20040;-94
2022/07/29 05:56:57;;;;;;;6.70;1.10;;;15.90;99.90;;;;;;4752238;30;20055;-95
2022/07/29 06:02:15;;;;;;;5.28;1.52;;;16.00;99.90;;;;;;4766091;30;20060;-92
2022/07/29 06:04:40;;;;;;;4.20;1.40;;;16.00;99.90;;;;;;4757745;30;20108;-94
2022/07/29 06:07:06;;;;;;;10.32;1.38;;;16.00;99.90;;;;;;4755094;30;20511;-95
2022/07/29 06:09:33;;;;;;;10.45;1.80;;;16.10;99.90;;;;;;4752147;30;20047;-94
2022/07/29 06:11:58;;;;;;;8.18;1.40;;;16.10;99.90;;;;;;4752263;30;20063;-93
2022/07/29 06:14:26;;;;;;;7.00;1.73;;;16.20;99.90;;;;;;4751572;30;20050;-94
2022/07/29 06:16:52;;;;;;;4.57;1.33;;;16.20;99.90;;;;;;4751567;30;20059;-94
2022/07/29 06:19:18;;;;;;;6.15;1.50;;;16.20;99.90;;;;;;4751529;30;20822;-93
2022/07/29 06:21:45;;;;;;;7.88;1.55;;;16.30;99.90;;;;;;4755139;30;20051;-95
2022/07/29 06:24:12;;;;;;;4.18;1.17;;;16.30;99.90;;;;;;4740558;30;20055;-95
2022/07/29 06:26:39;;;;;;;7.07;1.27;;;16.40;99.90;;;;;;4755127;30;20090;-95
2022/07/29 06:29:05;;;;;;;7.28;1.40;;;16.40;99.90;;;;;;4755483;30;20043;-94
2022/07/29 06:31:31;;;;;;;8.52;1.63;;;16.40;99.90;;;;;;4754316;30;20047;-91
2022/07/29 06:33:56;;;;;;;6.65;1.30;;;16.50;99.90;;;;;;4754611;30;20118;-94
2022/07/29 06:36:22;;;;;;;5.70;1.50;;;16.60;99.90;;;;;;4753126;29;20431;-95
2022/07/29 06:38:48;;;;;;;6.72;1.55;;;16.70;99.90;;;;;;4753620;30;20109;-94
2022/07/29 06:41:15;;;;;;;7.15;1.50;;;16.80;99.90;;;;;;4772201;30;20051;-94
2022/07/29 06:43:43;;;;;;;5.03;1.42;;;16.80;99.90;;;;;;4755690;30;20134;-82
2022/07/29 06:46:11;;;;;;;7.50;2.13;;;16.90;99.90;;;;;;4783026;30;20120;-83
2022/07/29 06:48:38;;;;;;;5.50;1.40;;;17.00;99.90;;;;;;4765513;30;20051;-84
2022/07/29 06:51:05;;;;;;;6.82;1.40;;;17.10;99.90;;;;;;4754459;30;20055;-85
2022/07/29 06:53:31;;;;;;;9.68;1.77;;;17.10;99.90;;;;;;4768228;30;20083;-83
2022/07/29 06:55:59;;;;;;;6.63;1.40;;;17.20;99.90;;;;;;4769368;30;20149;-84
2022/07/29 06:58:26;;;;;;;9.63;1.50;;;17.20;99.90;;;;;;4768380;30;20055;-84
2022/07/29 07:00:51;;;;;;;5.45;1.30;;;17.30;99.90;;;;;;4768270;30;20071;-83
2022/07/29 07:03:18;;;;;;;3.78;1.58;;;17.30;99.90;;;;;;4768531;30;20048;-83
2022/07/29 07:05:44;;;;;;;8.57;1.80;;;17.30;99.90;;;;;;4752725;30;20539;-84
2022/07/29 07:08:10;;;;;;;5.78;1.30;;;17.40;99.90;;;;;;4761225;30;20040;-84
2022/07/29 07:10:36;;;;;;;8.32;1.20;;;17.50;99.90;;;;;;4758649;30;20087;-84
2022/07/29 07:13:02;;;;;;;7.15;1.30;;;17.60;99.90;;;;;;4744880;30;20579;-84
2022/07/29 07:15:29;;;;;;;7.00;1.40;;;17.70;99.90;;;;;;4750402;30;20047;-84
2022/07/29 07:17:54;;;;;;;5.05;1.42;;;17.80;99.90;;;;;;4742942;30;20112;-83
2022/07/29 07:20:20;;;;;;;7.10;1.35;;;17.90;99.90;;;;;;4751817;30;20047;-82
2022/07/29 07:22:46;;;;;;;7.25;1.35;;;18.00;99.90;;;;;;4745048;30;20043;-83
2022/07/29 07:25:13;;;;;;;5.05;1.27;;;18.00;99.90;;;;;;4768067;30;20520;-84
2022/07/29 07:27:39;;;;;;;4.45;1.20;;;18.00;99.90;;;;;;4767687;30;20513;-83
2022/07/29 07:30:06;;;;;;;7.15;1.30;;;18.00;99.90;;;;;;4767972;30;20108;-94
2022/07/29 07:32:34;;;;;;;9.10;1.45;;;18.00;99.90;;;;;;4766187;30;20457;-93
2022/07/29 07:34:59;;;;;;;6.25;1.20;;;18.00;99.90;;;;;;4759783;30;20074;-93
2022/07/29 07:37:26;;;;;;;6.65;1.17;;;18.00;99.90;;;;;;4760577;30;20484;-91
2022/07/29 07:39:52;;;;;;;8.60;1.45;;;18.00;99.90;;;;;;4750187;30;20064;-92
2022/07/29 07:42:19;;;;;;;8.93;1.48;;;18.00;99.90;;;;;;4754374;30;20089;-91
2022/07/29 07:44:48;;;;;;;4.60;1.33;;;18.10;99.90;;;;;;4754041;30;20074;-92
2022/07/29 07:47:19;;;;;;;7.43;1.52;;;18.10;99.90;;;;;;4737381;30;20052;-93
2022/07/29 07:49:46;;;;;;;8.68;1.50;;;18.10;99.90;;;;;;4752147;30;20047;-93
2022/07/29 07:52:13;;;;;;;9.20;1.30;;;18.20;99.90;;;;;;4737240;30;20048;-93
2022/07/29 07:54:39;;;;;;;8.00;1.40;;;18.20;99.90;;;;;;4737679;30;20052;-93
2022/07/29 07:57:04;;;;;;;6.35;1.20;;;18.20;99.90;;;;;;4736665;30;20126;-94
2022/07/29 07:59:30;;;;;;;8.50;1.60;;;18.30;99.90;;;;;;4737594;30;20067;-93
2022/07/29 08:01:56;;;;;;;5.07;1.40;;;18.30;99.90;;;;;;4735765;30;20147;-93
2022/07/29 08:04:22;;;;;;;6.57;1.67;;;18.30;99.90;;;;;;4736657;30;20054;-93
2022/07/29 08:06:49;;;;;;;7.18;1.48;;;18.40;99.90;;;;;;4737445;30;20057;-94
2022/07/29 08:09:15;;;;;;;5.63;1.30;;;18.40;99.90;;;;;;4736381;30;20509;-93
2022/07/29 08:11:41;;;;;;;6.07;1.40;;;18.50;99.90;;;;;;4736989;30;20058;-93
2022/07/29 08:14:06;;;;;;;5.60;1.33;;;18.50;99.90;;;;;;4736892;30;20052;-94
2022/07/29 08:16:32;;;;;;;5.70;1.50;;;18.50;99.90;;;;;;4735912;30;20044;-92
2022/07/29 08:18:58;;;;;;;7.65;1.73;;;18.50;99.90;;;;;;4737008;30;20051;-93
2022/07/29 08:21:24;;;;;;;8.23;1.65;;;18.60;99.90;;;;;;4736312;30;20083;-93
2022/07/29 08:23:52;;;;;;;6.88;1.80;;;18.60;99.90;;;;;;4737180;30;20060;-93
2022/07/29 08:26:22;;;;;;;8.27;1.42;;;18.70;99.90;;;;;;4736683;30;20153;-93
2022/07/29 08:28:50;;;;;;;6.10;1.50;;;18.70;99.90;;;;;;4741028;30;20047;-93
2022/07/29 08:31:16;;;;;;;5.90;1.35;;;18.80;99.90;;;;;;4735134;30;20569;-92
2022/07/29 08:33:42;;;;;;;9.10;1.50;;;18.90;99.90;;;;;;4751742;30;20051;-93
2022/07/29 08:36:08;;;;;;;6.68;1.85;;;19.10;99.90;;;;;;4736676;30;20509;-94
2022/07/29 08:38:34;;;;;;;8.40;1.83;;;19.20;99.90;;;;;;4750932;30;20132;-93
2022/07/29 08:41:01;;;;;;;7.70;1.70;;;19.20;99.90;;;;;;4736704;30;20052;-93
2022/07/29 08:43:28;;;;;;;11.18;2.15;;;19.40;99.90;;;;;;4750687;30;20058;-94
2022/07/29 08:45:54;;;;;;;7.80;1.80;;;19.40;99.90;;;;;;4734621;30;20903;-83
2022/07/29 08:48:22;;;;;;;6.55;1.90;;;19.50;99.90;;;;;;4733548;30;20529;-83
2022/07/29 08:50:52;;;;;;;6.05;1.60;;;19.50;99.90;;;;;;4764033;30;20055;-83
2022/07/29 08:53:18;;;;;;;12.95;1.65;;;19.50;99.90;;;;;;4762651;30;20059;-83
2022/07/29 08:55:48;;;;;;;7.97;1.70;;;19.50;99.90;;;;;;4749189;30;20066;-84
2022/07/29 08:58:15;;;;;;;5.10;1.60;;;19.60;99.90;;;;;;4747903;30;20052;-84
2022/07/29 09:00:55;;;;;;;5.70;1.48;;;19.60;99.90;;;;;;4762114;30;20085;-84
2022/07/29 09:03:24;;;;;;;6.18;1.58;;;19.60;99.90;;;;;;4765949;30;20055;-84
2022/07/29 09:05:51;;;;;;;8.93;1.40;;;19.60;99.90;;;;;;4765651;30;20062;-84
2022/07/29 09:08:17;;;;;;;6.45;1.85;;;19.70;99.90;;;;;;4766428;30;20416;-83
2022/07/29 09:10:44;;;;;;;5.50;1.83;;;19.70;99.90;;;;;;4766663;30;20054;-84
2022/07/29 09:13:10;;;;;;;9.20;1.80;;;19.70;99.90;;;;;;4765248;30;20078;-84
2022/07/29 09:15:36;;;;;;;16.17;2.47;;;19.70;99.90;;;;;;4765987;30;20051;-83
2022/07/29 09:18:02;;;;;;;9.00;1.30;;;19.80;99.90;;;;;;4766073;30;20047;-83
2022/07/29 09:21:57;;;;;;;7.63;1.70;;;19.80;99.90;;;;;;4765728;30;20103;-84
2022/07/29 09:23:15;;;;;;;14.65;1.98;;;19.80;99.90;;;;;;4766323;30;20208;-84
2022/07/29 09:25:41;;;;;;;6.20;1.75;;;19.80;99.90;;;;;;4765790;30;20150;-83
2022/07/29 09:28:09;;;;;;;10.88;2.08;;;19.80;99.90;;;;;;4765832;30;20047;-84
2022/07/29 09:30:35;;;;;;;6.88;1.52;;;19.80;99.90;;;;;;4765747;30;20063;-84
2022/07/29 09:33:03;;;;;;;5.45;1.80;;;19.80;99.90;;;;;;4766208;30;20043;-84
2022/07/29 09:35:30;;;;;;;7.38;1.95;;;19.80;99.90;;;;;;4765402;30;20059;-84
2022/07/29 09:37:56;;;;;;;8.75;1.95;;;19.80;99.90;;;;;;4766022;30;20047;-84
2022/07/29 09:40:25;;;;;;;11.80;1.48;;;19.80;99.90;;;;;;4751477;30;20074;-83
2022/07/29 09:42:52;;;;;;;3.88;1.75;;;19.80;99.90;;;;;;4748064;30;20505;-84
2022/07/29 09:45:29;;;;;;;8.52;1.65;;;19.70;99.90;;;;;;4762543;30;20080;-84
2022/07/29 09:47:57;;;;;;;5.93;1.73;;;19.70;99.90;;;;;;4733230;30;20544;-84
2022/07/29 09:50:34;;;;;;;8.30;1.80;;;19.60;99.90;;;;;;4733082;30;20052;-84
2022/07/29 09:52:59;;;;;;;8.50;2.00;;;19.50;99.90;;;;;;4733934;30;20083;-85
2022/07/29 09:55:25;;;;;;;6.82;1.83;;;19.50;99.90;;;;;;4768877;30;20102;-88
2022/07/29 09:57:51;;;;;;;7.07;2.15;;;19.50;99.90;;;;;;4737544;30;20057;-83
2022/07/29 10:00:19;;;;;;;4.57;1.80;;;19.60;99.90;;;;;;4751192;30;20504;-83
2022/07/29 10:02:46;;;;;;;5.97;1.92;;;19.60;99.90;;;;;;4750954;30;20063;-82
2022/07/29 10:05:20;;;;;;;8.15;1.90;;;19.70;99.90;;;;;;4751439;30;20117;-83
2022/07/29 10:07:50;;;;;;;8.70;1.70;;;19.90;99.90;;;;;;4752061;30;20063;-83
2022/07/29 10:10:24;;;;;;;6.22;2.03;;;19.90;99.90;;;;;;4735413;30;20051;-82
2022/07/29 10:12:55;;;;;;;8.90;1.75;;;20.00;99.90;;;;;;4760743;30;20472;-83
2022/07/29 10:15:23;;;;;;;7.05;1.85;;;20.10;99.90;;;;;;4763647;30;20048;-82
2022/07/29 10:17:50;;;;;;;5.78;1.98;;;20.10;99.90;;;;;;4748463;30;20063;-82
2022/07/29 10:20:17;;;;;;;4.95;2.15;;;20.20;99.90;;;;;;4749557;30;20056;-89
2022/07/29 10:22:43;;;;;;;6.25;2.17;;;20.20;99.90;;;;;;4736551;30;20126;-88
2022/07/29 10:25:10;;;;;;;6.70;2.10;;;20.20;99.90;;;;;;4748611;30;20059;-83
2022/07/29 10:27:36;;;;;;;7.35;2.25;;;20.20;99.90;;;;;;4749219;30;20055;-84
2022/07/29 10:30:04;;;;;;;4.85;2.35;;;20.20;99.90;;;;;;4765368;30;20112;-84
2022/07/29 10:32:30;;;;;;;5.70;1.85;;;20.20;99.90;;;;;;4766382;30;20055;-84
2022/07/29 10:35:21;;;;;;;8.00;2.00;;;20.20;99.90;;;;;;4766863;30;20067;-84
2022/07/29 10:37:59;;;;;;;8.35;2.30;;;20.10;99.90;;;;;;4766267;30;20062;-85
2022/07/29 10:43:28;;;;;;;12.77;2.22;;;20.20;99.90;;;;;;4766409;30;20059;-83
2022/07/29 10:45:57;;;;;;;8.57;2.10;;;20.30;99.90;;;;;;4765530;30;20067;-86
2022/07/29 10:48:23;;;;;;;4.03;1.50;;;20.30;99.90;;;;;;4766255;30;20565;-85
2022/07/29 10:50:59;;;;;;;5.68;1.65;;;20.40;99.90;;;;;;4765849;30;20520;-83
2022/07/29 10:53:46;;;;;;;6.03;1.75;;;20.40;99.90;;;;;;4766065;30;20684;-83
2022/07/29 10:56:33;;;;;;;7.60;2.15;;;20.50;99.90;;;;;;4765995;30;20040;-84
2022/07/29 10:59:18;;;;;;;10.13;2.10;;;20.50;99.90;;;;;;4750945;30;20051;-84
2022/07/29 11:01:44;;;;;;;7.63;1.90;;;20.60;99.90;;;;;;4765318;30;20071;-83
2022/07/29 11:04:10;;;;;;;5.13;1.63;;;20.60;99.90;;;;;;4766357;30;20055;-83
2022/07/29 11:07:07;;;;;;;6.55;1.80;;;20.70;99.90;;;;;;4763922;30;20062;-84
2022/07/29 11:09:33;;;;;;;10.38;2.30;;;20.80;99.90;;;;;;4766079;30;20102;-84
2022/07/29 11:11:59;;;;;;;8.07;2.20;;;20.90;99.90;;;;;;4765501;30;20094;-83
2022/07/29 11:14:58;;;;;;;6.60;2.28;;;21.00;99.90;;;;;;4765769;30;20079;-84
2022/07/29 11:17:25;;;;;;;9.00;2.10;;;21.00;99.90;;;;;;4764485;30;20066;-83
2022/07/29 11:19:51;;;;;;;11.30;2.50;;;21.00;99.90;;;;;;4765655;30;20133;-85
2022/07/29 11:22:35;;;;;;;8.82;2.20;;;21.00;99.90;;;;;;4765707;30;20051;-83
2022/07/29 11:25:17;;;;;;;7.25;2.22;;;20.90;99.90;;;;;;4765551;30;20055;-85
2022/07/29 11:27:44;;;;;;;7.75;2.30;;;20.90;99.90;;;;;;4764720;30;20143;-85
2022/07/29 11:30:11;;;;;;;9.10;2.30;;;20.90;99.90;;;;;;4766189;30;20166;-85
2022/07/29 11:32:41;;;;;;;6.93;2.38;;;21.00;99.90;;;;;;4752819;30;20043;-85
2022/07/29 11:35:12;;;;;;;8.45;2.05;;;21.10;99.90;;;;;;4769487;30;20051;-96
2022/07/29 11:37:38;;;;;;;8.40;2.00;;;21.10;99.90;;;;;;4768777;30;20093;-96
2022/07/29 11:40:03;;;;;;;9.48;2.05;;;21.20;99.90;;;;;;4775047;30;20043;-96
2022/07/29 11:42:35;;;;;;;5.90;2.40;;;21.30;99.90;;;;;;4788708;30;20076;-96
2022/07/29 11:45:06;;;;;;;6.83;1.93;;;21.40;99.90;;;;;;4788612;30;20043;-96
2022/07/29 11:47:36;;;;;;;8.10;2.25;;;21.50;99.90;;;;;;4771883;30;20055;-96
2022/07/29 11:50:04;;;;;;;6.07;1.67;;;21.70;99.90;;;;;;4786584;30;20051;-96
2022/07/29 11:52:36;;;;;;;11.02;1.92;;;21.90;99.90;;;;;;4782978;30;20062;-96
2022/07/29 11:55:06;;;;;;;4.77;2.00;;;22.10;99.90;;;;;;4784076;30;20055;-96
2022/07/29 11:57:34;;;;;;;8.32;1.90;;;22.30;99.90;;;;;;4782225;30;20285;-96
2022/07/29 12:00:00;;;;;;;12.73;2.00;;;22.40;99.90;;;;;;4771473;30;20055;-96
2022/07/29 12:02:41;;;;;;;8.13;1.77;;;22.60;99.90;;;;;;4782739;30;20059;-96
2022/07/29 12:05:08;;;;;;;5.13;1.67;;;22.70;99.90;;;;;;4786129;30;20158;-96
2022/07/29 12:07:34;;;;;;;8.38;2.15;;;22.90;99.90;;;;;;4783385;30;20051;-96
2022/07/29 12:10:01;;;;;;;6.57;1.88;;;23.00;99.90;;;;;;4789155;30;20088;-96
2022/07/29 12:12:27;;;;;;;18.00;2.47;;;23.20;99.90;;;;;;4791092;30;20492;-96
2022/07/29 12:14:54;;;;;;;4.88;1.60;;;23.20;99.90;;;;;;4785791;30;20051;-96
2022/07/29 12:17:26;;;;;;;11.93;1.73;;;23.20;99.90;;;;;;4786196;30;20106;-96
2022/07/29 12:19:53;;;;;;;7.07;1.63;;;23.20;99.90;;;;;;4787250;30;20055;-96
2022/07/29 12:22:32;;;;;;;13.60;2.20;;;23.30;99.90;;;;;;4780314;30;20308;-96
2022/07/29 12:25:05;;;;;;;5.20;1.48;;;23.30;99.90;;;;;;4758610;30;20047;-93
2022/07/29 12:27:32;;;;;;;5.10;1.80;;;23.40;99.90;;;;;;4769303;30;20055;-92
2022/07/29 12:30:00;;;;;;;8.07;1.95;;;23.60;99.90;;;;;;4752071;30;20139;-93
2022/07/29 12:32:49;;;;;;;5.97;1.90;;;23.70;99.90;;;;;;4736231;30;20058;-94
2022/07/29 12:35:19;;;;;;;4.60;1.70;;;23.80;99.90;;;;;;4738018;30;20093;-95
2022/07/29 12:37:57;;;;;;;11.38;1.77;;;23.90;99.90;;;;;;4736599;30;20054;-95
2022/07/29 12:40:22;;;;;;;9.20;2.15;;;23.90;99.90;;;;;;4736399;30;20475;-93
2022/07/29 12:43:09;;;;;;;10.25;2.17;;;24.00;99.90;;;;;;4736679;30;20044;-93
2022/07/29 12:45:38;;;;;;;8.38;1.60;;;24.00;99.90;;;;;;4735009;30;20493;-94
2022/07/29 12:48:08;;;;;;;6.10;1.70;;;24.00;99.90;;;;;;4767555;30;20042;-96
2022/07/29 12:50:53;;;;;;;16.60;2.10;;;24.00;99.90;;;;;;4752742;30;20054;-96
2022/07/29 12:53:19;;;;;;;7.30;1.58;;;23.90;99.90;;;;;;4751946;30;20078;-96
2022/07/29 12:56:07;;;;;;;7.85;1.60;;;23.90;99.90;;;;;;4748662;30;20055;-96
2022/07/29 12:58:39;;;;;;;9.60;1.60;;;23.90;99.90;;;;;;4771558;30;20075;-96
2022/07/29 13:01:11;;;;;;;9.68;1.77;;;24.00;99.90;;;;;;4749460;30;20059;-96